KRCV

Astronaut Kent Rominger Airport

Del Norte, Colorado, USA
METAR KRCV 211435Z AUTO 28005KT 10SM CLR 10/01 A3025 RMK AO2 T00990014
Observed Flight Rules
May-21 @ 14:35 UTC (24 minutes ago) Visual Flight Rules
Wind Visibility Clouds
280° at 5 knots 10 miles
  • Clear skies
Temperatures Readings
Current 10°C / 50°F
Dewpoint 1°C / 34°F
Humidity 54%
Altimeter 30.25" Hg
Pressure 1024 hPa
Elevation 2424
METAR KRCV 211435Z AUTO 28005KT 10SM CLR 10/01 A3025 RMK AO2 T00990014
Observed Flight Rules
May-21 @ 14:35 UTC
(24 minutes ago)
VFR
Wind Visibility
280° at 5 knots 10 miles
Clouds
  • Clear skies
Temperature Dewpoint
10°C / 50°F 1°C / 34°F
Humidity Altimeter Pressure
54% 30.25" Hg 1024 hPa